sensor_id;sensor_type;location;lat;lon;timestamp;P1;durP1;ratioP1;P2;durP2;ratioP2
57752;SDS011;43583;53.132;6.574;2023-02-23T00:02:00;46.15;;;19.75;;
57752;SDS011;43583;53.132;6.574;2023-02-23T00:04:31;49.70;;;19.98;;
57752;SDS011;43583;53.132;6.574;2023-02-23T00:06:58;46.60;;;20.67;;
57752;SDS011;43583;53.132;6.574;2023-02-23T00:09:23;45.70;;;20.73;;
57752;SDS011;43583;53.132;6.574;2023-02-23T00:11:49;48.15;;;20.50;;
57752;SDS011;43583;53.132;6.574;2023-02-23T00:14:17;50.63;;;20.75;;
57752;SDS011;43583;53.132;6.574;2023-02-23T00:16:43;45.17;;;20.25;;
57752;SDS011;43583;53.132;6.574;2023-02-23T00:19:09;45.45;;;19.42;;
57752;SDS011;43583;53.132;6.574;2023-02-23T00:21:38;55.75;;;23.73;;
57752;SDS011;43583;53.132;6.574;2023-02-23T00:24:13;47.03;;;21.77;;
57752;SDS011;43583;53.132;6.574;2023-02-23T00:26:39;52.72;;;24.05;;
57752;SDS011;43583;53.132;6.574;2023-02-23T00:29:22;53.38;;;23.45;;
57752;SDS011;43583;53.132;6.574;2023-02-23T00:31:49;57.88;;;22.77;;
57752;SDS011;43583;53.132;6.574;2023-02-23T00:34:16;58.53;;;24.90;;
57752;SDS011;43583;53.132;6.574;2023-02-23T00:36:45;57.53;;;25.27;;
57752;SDS011;43583;53.132;6.574;2023-02-23T00:39:13;55.17;;;24.88;;
57752;SDS011;43583;53.132;6.574;2023-02-23T00:41:44;62.42;;;26.23;;
57752;SDS011;43583;53.132;6.574;2023-02-23T00:44:10;56.55;;;23.77;;
57752;SDS011;43583;53.132;6.574;2023-02-23T00:46:39;64.25;;;25.55;;
57752;SDS011;43583;53.132;6.574;2023-02-23T00:49:07;61.22;;;25.60;;
57752;SDS011;43583;53.132;6.574;2023-02-23T00:51:35;64.80;;;25.73;;
57752;SDS011;43583;53.132;6.574;2023-02-23T00:54:01;70.07;;;27.00;;
57752;SDS011;43583;53.132;6.574;2023-02-23T00:56:28;60.80;;;25.58;;
57752;SDS011;43583;53.132;6.574;2023-02-23T00:58:54;62.25;;;26.92;;
57752;SDS011;43583;53.132;6.574;2023-02-23T01:01:20;61.80;;;24.92;;
57752;SDS011;43583;53.132;6.574;2023-02-23T01:03:47;67.45;;;26.67;;
57752;SDS011;43583;53.132;6.574;2023-02-23T01:06:14;69.60;;;26.55;;
57752;SDS011;43583;53.132;6.574;2023-02-23T01:08:41;60.83;;;26.05;;
57752;SDS011;43583;53.132;6.574;2023-02-23T01:11:11;77.15;;;27.77;;
57752;SDS011;43583;53.132;6.574;2023-02-23T01:13:39;65.25;;;27.00;;
57752;SDS011;43583;53.132;6.574;2023-02-23T01:16:07;64.82;;;24.77;;
57752;SDS011;43583;53.132;6.574;2023-02-23T01:18:35;68.88;;;27.88;;
57752;SDS011;43583;53.132;6.574;2023-02-23T01:21:02;74.60;;;27.02;;
57752;SDS011;43583;53.132;6.574;2023-02-23T01:23:31;69.35;;;28.23;;
57752;SDS011;43583;53.132;6.574;2023-02-23T01:25:57;70.38;;;27.50;;
57752;SDS011;43583;53.132;6.574;2023-02-23T01:28:23;71.10;;;28.40;;
57752;SDS011;43583;53.132;6.574;2023-02-23T01:30:49;67.75;;;28.05;;
57752;SDS011;43583;53.132;6.574;2023-02-23T01:33:14;66.78;;;26.83;;
57752;SDS011;43583;53.132;6.574;2023-02-23T01:35:40;70.97;;;27.33;;
57752;SDS011;43583;53.132;6.574;2023-02-23T01:38:07;74.95;;;28.23;;
57752;SDS011;43583;53.132;6.574;2023-02-23T01:40:34;78.13;;;28.33;;
57752;SDS011;43583;53.132;6.574;2023-02-23T01:45:36;70.82;;;28.95;;
57752;SDS011;43583;53.132;6.574;2023-02-23T01:48:17;82.30;;;29.88;;
57752;SDS011;43583;53.132;6.574;2023-02-23T01:53:39;77.80;;;29.80;;
57752;SDS011;43583;53.132;6.574;2023-02-23T01:56:10;79.07;;;28.80;;
57752;SDS011;43583;53.132;6.574;2023-02-23T01:58:46;72.47;;;28.27;;
57752;SDS011;43583;53.132;6.574;2023-02-23T02:01:18;74.95;;;28.10;;
57752;SDS011;43583;53.132;6.574;2023-02-23T02:03:46;69.70;;;28.80;;
57752;SDS011;43583;53.132;6.574;2023-02-23T02:06:21;75.25;;;29.20;;
57752;SDS011;43583;53.132;6.574;2023-02-23T02:08:53;79.35;;;28.85;;
57752;SDS011;43583;53.132;6.574;2023-02-23T02:11:23;71.53;;;28.02;;
57752;SDS011;43583;53.132;6.574;2023-02-23T02:28:00;74.18;;;28.15;;
57752;SDS011;43583;53.132;6.574;2023-02-23T02:39:29;80.55;;;28.40;;
57752;SDS011;43583;53.132;6.574;2023-02-23T02:47:25;77.00;;;28.70;;
57752;SDS011;43583;53.132;6.574;2023-02-23T02:50:09;71.00;;;27.77;;
57752;SDS011;43583;53.132;6.574;2023-02-23T02:52:52;72.72;;;28.83;;
57752;SDS011;43583;53.132;6.574;2023-02-23T02:55:25;77.30;;;27.35;;
57752;SDS011;43583;53.132;6.574;2023-02-23T02:57:54;76.43;;;29.75;;
57752;SDS011;43583;53.132;6.574;2023-02-23T03:00:29;78.32;;;28.77;;
57752;SDS011;43583;53.132;6.574;2023-02-23T03:06:15;79.50;;;29.77;;
57752;SDS011;43583;53.132;6.574;2023-02-23T03:09:05;70.68;;;26.30;;
57752;SDS011;43583;53.132;6.574;2023-02-23T03:12:03;78.75;;;28.30;;
57752;SDS011;43583;53.132;6.574;2023-02-23T03:18:11;67.47;;;26.60;;
57752;SDS011;43583;53.132;6.574;2023-02-23T03:21:15;67.65;;;27.65;;
57752;SDS011;43583;53.132;6.574;2023-02-23T03:30:19;73.80;;;28.13;;
57752;SDS011;43583;53.132;6.574;2023-02-23T03:33:18;66.10;;;26.42;;
57752;SDS011;43583;53.132;6.574;2023-02-23T03:36:12;67.95;;;25.83;;
57752;SDS011;43583;53.132;6.574;2023-02-23T03:39:09;74.35;;;27.38;;
57752;SDS011;43583;53.132;6.574;2023-02-23T03:42:01;70.63;;;26.70;;
57752;SDS011;43583;53.132;6.574;2023-02-23T03:44:48;69.63;;;27.90;;
57752;SDS011;43583;53.132;6.574;2023-02-23T03:47:36;67.82;;;26.70;;
57752;SDS011;43583;53.132;6.574;2023-02-23T03:50:25;72.15;;;27.33;;
57752;SDS011;43583;53.132;6.574;2023-02-23T03:53:21;73.60;;;27.85;;
57752;SDS011;43583;53.132;6.574;2023-02-23T03:56:12;69.15;;;25.55;;
57752;SDS011;43583;53.132;6.574;2023-02-23T03:59:00;68.38;;;28.75;;
57752;SDS011;43583;53.132;6.574;2023-02-23T04:01:46;66.80;;;26.92;;
57752;SDS011;43583;53.132;6.574;2023-02-23T04:04:33;70.88;;;28.08;;
57752;SDS011;43583;53.132;6.574;2023-02-23T04:07:19;65.80;;;26.40;;
57752;SDS011;43583;53.132;6.574;2023-02-23T04:10:04;67.57;;;27.08;;
57752;SDS011;43583;53.132;6.574;2023-02-23T04:13:01;76.18;;;27.75;;
57752;SDS011;43583;53.132;6.574;2023-02-23T04:18:23;70.30;;;28.83;;
57752;SDS011;43583;53.132;6.574;2023-02-23T04:20:52;73.47;;;27.52;;
57752;SDS011;43583;53.132;6.574;2023-02-23T04:23:18;77.88;;;28.40;;
57752;SDS011;43583;53.132;6.574;2023-02-23T04:25:47;73.25;;;27.50;;
57752;SDS011;43583;53.132;6.574;2023-02-23T04:28:13;72.85;;;27.30;;
57752;SDS011;43583;53.132;6.574;2023-02-23T04:30:40;70.85;;;26.52;;
57752;SDS011;43583;53.132;6.574;2023-02-23T04:33:06;74.90;;;26.20;;
57752;SDS011;43583;53.132;6.574;2023-02-23T04:35:31;76.20;;;27.33;;
57752;SDS011;43583;53.132;6.574;2023-02-23T04:37:57;86.70;;;28.23;;
57752;SDS011;43583;53.132;6.574;2023-02-23T04:40:24;78.03;;;26.80;;
57752;SDS011;43583;53.132;6.574;2023-02-23T04:42:50;70.32;;;26.63;;
57752;SDS011;43583;53.132;6.574;2023-02-23T04:45:16;82.25;;;27.40;;
57752;SDS011;43583;53.132;6.574;2023-02-23T04:47:42;80.82;;;28.40;;
57752;SDS011;43583;53.132;6.574;2023-02-23T04:50:09;74.80;;;28.08;;
57752;SDS011;43583;53.132;6.574;2023-02-23T04:52:35;79.82;;;27.20;;
57752;SDS011;43583;53.132;6.574;2023-02-23T04:55:02;75.32;;;25.95;;
57752;SDS011;43583;53.132;6.574;2023-02-23T04:57:32;83.35;;;28.40;;
57752;SDS011;43583;53.132;6.574;2023-02-23T04:59:59;70.40;;;25.30;;
57752;SDS011;43583;53.132;6.574;2023-02-23T05:02:25;73.93;;;26.88;;
57752;SDS011;43583;53.132;6.574;2023-02-23T05:04:51;80.45;;;27.92;;
57752;SDS011;43583;53.132;6.574;2023-02-23T05:07:17;79.38;;;28.52;;
57752;SDS011;43583;53.132;6.574;2023-02-23T05:09:42;71.45;;;25.23;;
57752;SDS011;43583;53.132;6.574;2023-02-23T05:12:08;78.88;;;26.13;;
57752;SDS011;43583;53.132;6.574;2023-02-23T05:14:34;83.82;;;26.75;;
57752;SDS011;43583;53.132;6.574;2023-02-23T05:16:59;78.03;;;26.20;;
57752;SDS011;43583;53.132;6.574;2023-02-23T05:19:25;67.53;;;25.60;;
57752;SDS011;43583;53.132;6.574;2023-02-23T05:21:51;84.97;;;29.00;;
57752;SDS011;43583;53.132;6.574;2023-02-23T05:24:17;61.83;;;24.27;;
57752;SDS011;43583;53.132;6.574;2023-02-23T05:26:43;75.13;;;25.17;;
57752;SDS011;43583;53.132;6.574;2023-02-23T05:29:10;72.03;;;25.30;;
57752;SDS011;43583;53.132;6.574;2023-02-23T05:31:36;72.15;;;24.27;;
57752;SDS011;43583;53.132;6.574;2023-02-23T05:34:02;72.32;;;25.58;;
57752;SDS011;43583;53.132;6.574;2023-02-23T05:36:27;66.70;;;23.92;;
57752;SDS011;43583;53.132;6.574;2023-02-23T05:38:53;67.00;;;22.90;;
57752;SDS011;43583;53.132;6.574;2023-02-23T05:41:20;63.17;;;23.35;;
57752;SDS011;43583;53.132;6.574;2023-02-23T05:43:47;68.78;;;22.65;;
57752;SDS011;43583;53.132;6.574;2023-02-23T05:46:17;66.50;;;22.52;;
57752;SDS011;43583;53.132;6.574;2023-02-23T05:48:45;57.75;;;19.90;;
57752;SDS011;43583;53.132;6.574;2023-02-23T05:51:11;56.38;;;20.95;;
57752;SDS011;43583;53.132;6.574;2023-02-23T05:53:39;57.25;;;21.05;;
57752;SDS011;43583;53.132;6.574;2023-02-23T05:56:05;54.00;;;19.08;;
57752;SDS011;43583;53.132;6.574;2023-02-23T05:58:32;53.47;;;20.35;;
57752;SDS011;43583;53.132;6.574;2023-02-23T06:00:57;55.30;;;20.48;;
57752;SDS011;43583;53.132;6.574;2023-02-23T06:03:23;51.50;;;17.55;;
57752;SDS011;43583;53.132;6.574;2023-02-23T06:05:50;48.50;;;17.75;;
57752;SDS011;43583;53.132;6.574;2023-02-23T06:08:21;48.70;;;16.88;;
57752;SDS011;43583;53.132;6.574;2023-02-23T06:10:49;44.75;;;18.30;;
57752;SDS011;43583;53.132;6.574;2023-02-23T06:13:14;45.80;;;15.82;;
57752;SDS011;43583;53.132;6.574;2023-02-23T06:15:40;39.50;;;15.45;;
57752;SDS011;43583;53.132;6.574;2023-02-23T06:18:06;42.10;;;14.85;;
57752;SDS011;43583;53.132;6.574;2023-02-23T06:20:35;39.15;;;15.82;;
57752;SDS011;43583;53.132;6.574;2023-02-23T06:23:02;40.88;;;15.48;;
57752;SDS011;43583;53.132;6.574;2023-02-23T06:25:28;40.22;;;15.07;;
57752;SDS011;43583;53.132;6.574;2023-02-23T06:27:54;35.53;;;14.50;;
57752;SDS011;43583;53.132;6.574;2023-02-23T06:30:20;45.80;;;16.25;;
57752;SDS011;43583;53.132;6.574;2023-02-23T06:32:45;35.60;;;15.02;;
57752;SDS011;43583;53.132;6.574;2023-02-23T06:35:11;33.00;;;13.93;;
57752;SDS011;43583;53.132;6.574;2023-02-23T06:37:37;41.50;;;15.35;;
57752;SDS011;43583;53.132;6.574;2023-02-23T06:40:03;37.03;;;13.07;;
57752;SDS011;43583;53.132;6.574;2023-02-23T06:42:29;38.75;;;14.82;;
57752;SDS011;43583;53.132;6.574;2023-02-23T06:44:54;37.95;;;14.32;;
57752;SDS011;43583;53.132;6.574;2023-02-23T06:47:20;34.25;;;14.02;;
57752;SDS011;43583;53.132;6.574;2023-02-23T06:49:46;37.42;;;16.10;;
57752;SDS011;43583;53.132;6.574;2023-02-23T06:52:11;38.45;;;13.60;;
57752;SDS011;43583;53.132;6.574;2023-02-23T06:54:38;35.47;;;13.85;;
57752;SDS011;43583;53.132;6.574;2023-02-23T06:57:05;33.03;;;12.52;;
57752;SDS011;43583;53.132;6.574;2023-02-23T06:59:34;37.17;;;15.30;;
57752;SDS011;43583;53.132;6.574;2023-02-23T07:02:01;38.72;;;14.98;;
57752;SDS011;43583;53.132;6.574;2023-02-23T07:04:29;34.20;;;13.98;;
57752;SDS011;43583;53.132;6.574;2023-02-23T07:06:55;31.58;;;14.80;;
57752;SDS011;43583;53.132;6.574;2023-02-23T07:09:21;34.65;;;13.82;;
57752;SDS011;43583;53.132;6.574;2023-02-23T07:11:46;34.28;;;13.13;;
57752;SDS011;43583;53.132;6.574;2023-02-23T07:14:12;30.40;;;14.50;;
57752;SDS011;43583;53.132;6.574;2023-02-23T07:16:37;29.77;;;13.43;;
57752;SDS011;43583;53.132;6.574;2023-02-23T07:19:04;33.90;;;13.88;;
57752;SDS011;43583;53.132;6.574;2023-02-23T07:21:30;33.85;;;14.23;;
57752;SDS011;43583;53.132;6.574;2023-02-23T07:23:57;30.40;;;12.98;;
57752;SDS011;43583;53.132;6.574;2023-02-23T07:26:23;31.10;;;14.52;;
57752;SDS011;43583;53.132;6.574;2023-02-23T07:28:48;31.20;;;12.50;;
57752;SDS011;43583;53.132;6.574;2023-02-23T07:31:14;38.60;;;14.80;;
57752;SDS011;43583;53.132;6.574;2023-02-23T07:33:40;29.52;;;14.07;;
57752;SDS011;43583;53.132;6.574;2023-02-23T07:36:05;32.35;;;14.40;;
57752;SDS011;43583;53.132;6.574;2023-02-23T07:38:31;31.73;;;13.98;;
57752;SDS011;43583;53.132;6.574;2023-02-23T07:40:57;28.23;;;13.00;;
57752;SDS011;43583;53.132;6.574;2023-02-23T07:43:22;32.03;;;14.23;;
57752;SDS011;43583;53.132;6.574;2023-02-23T07:45:48;36.58;;;13.85;;
57752;SDS011;43583;53.132;6.574;2023-02-23T07:48:15;34.42;;;14.48;;
57752;SDS011;43583;53.132;6.574;2023-02-23T07:50:41;31.42;;;12.05;;
57752;SDS011;43583;53.132;6.574;2023-02-23T07:53:07;35.95;;;14.80;;
57752;SDS011;43583;53.132;6.574;2023-02-23T07:55:33;33.67;;;13.57;;
57752;SDS011;43583;53.132;6.574;2023-02-23T07:57:58;33.03;;;14.98;;
57752;SDS011;43583;53.132;6.574;2023-02-23T08:00:24;31.63;;;14.25;;
57752;SDS011;43583;53.132;6.574;2023-02-23T08:02:51;29.88;;;12.57;;
57752;SDS011;43583;53.132;6.574;2023-02-23T08:05:19;31.38;;;13.38;;
57752;SDS011;43583;53.132;6.574;2023-02-23T08:07:45;29.70;;;12.90;;
57752;SDS011;43583;53.132;6.574;2023-02-23T08:10:11;30.98;;;12.55;;
57752;SDS011;43583;53.132;6.574;2023-02-23T08:12:36;31.30;;;13.30;;
57752;SDS011;43583;53.132;6.574;2023-02-23T08:15:03;36.42;;;14.00;;
57752;SDS011;43583;53.132;6.574;2023-02-23T08:17:32;31.33;;;12.65;;
57752;SDS011;43583;53.132;6.574;2023-02-23T08:20:01;32.17;;;13.60;;
57752;SDS011;43583;53.132;6.574;2023-02-23T08:22:27;33.53;;;13.45;;
57752;SDS011;43583;53.132;6.574;2023-02-23T08:24:53;30.02;;;12.73;;
57752;SDS011;43583;53.132;6.574;2023-02-23T08:27:19;28.38;;;12.48;;
57752;SDS011;43583;53.132;6.574;2023-02-23T08:29:44;26.23;;;12.98;;
57752;SDS011;43583;53.132;6.574;2023-02-23T08:32:10;27.13;;;12.48;;
57752;SDS011;43583;53.132;6.574;2023-02-23T08:34:36;26.92;;;12.57;;
57752;SDS011;43583;53.132;6.574;2023-02-23T08:37:07;30.38;;;12.68;;
57752;SDS011;43583;53.132;6.574;2023-02-23T08:39:32;29.05;;;11.85;;
57752;SDS011;43583;53.132;6.574;2023-02-23T08:41:58;33.03;;;12.40;;
57752;SDS011;43583;53.132;6.574;2023-02-23T08:44:24;31.88;;;13.82;;
57752;SDS011;43583;53.132;6.574;2023-02-23T08:46:49;28.13;;;13.25;;
57752;SDS011;43583;53.132;6.574;2023-02-23T08:49:16;25.77;;;12.63;;
57752;SDS011;43583;53.132;6.574;2023-02-23T08:51:41;28.73;;;12.27;;
57752;SDS011;43583;53.132;6.574;2023-02-23T08:54:07;27.83;;;11.45;;
57752;SDS011;43583;53.132;6.574;2023-02-23T08:56:38;29.55;;;11.95;;
57752;SDS011;43583;53.132;6.574;2023-02-23T08:59:04;27.60;;;12.50;;
57752;SDS011;43583;53.132;6.574;2023-02-23T09:01:30;28.05;;;12.13;;
57752;SDS011;43583;53.132;6.574;2023-02-23T09:03:56;32.95;;;12.07;;
57752;SDS011;43583;53.132;6.574;2023-02-23T09:06:23;31.30;;;12.95;;
57752;SDS011;43583;53.132;6.574;2023-02-23T09:08:49;33.17;;;14.20;;
57752;SDS011;43583;53.132;6.574;2023-02-23T09:11:15;32.33;;;12.38;;
57752;SDS011;43583;53.132;6.574;2023-02-23T09:13:41;29.90;;;13.38;;
57752;SDS011;43583;53.132;6.574;2023-02-23T09:16:07;33.50;;;13.27;;
57752;SDS011;43583;53.132;6.574;2023-02-23T09:18:33;31.00;;;12.55;;
57752;SDS011;43583;53.132;6.574;2023-02-23T09:23:34;29.08;;;13.18;;
57752;SDS011;43583;53.132;6.574;2023-02-23T09:26:04;29.65;;;13.27;;
57752;SDS011;43583;53.132;6.574;2023-02-23T09:28:31;29.73;;;12.10;;
57752;SDS011;43583;53.132;6.574;2023-02-23T09:30:58;29.63;;;12.20;;
57752;SDS011;43583;53.132;6.574;2023-02-23T09:33:31;29.13;;;12.68;;
57752;SDS011;43583;53.132;6.574;2023-02-23T09:35:57;31.52;;;12.13;;
57752;SDS011;43583;53.132;6.574;2023-02-23T09:38:22;32.90;;;12.88;;
57752;SDS011;43583;53.132;6.574;2023-02-23T09:40:49;33.85;;;14.35;;
57752;SDS011;43583;53.132;6.574;2023-02-23T09:49:01;35.65;;;13.57;;
57752;SDS011;43583;53.132;6.574;2023-02-23T09:51:29;37.35;;;13.82;;
57752;SDS011;43583;53.132;6.574;2023-02-23T09:54:00;36.00;;;13.77;;
57752;SDS011;43583;53.132;6.574;2023-02-23T09:56:31;32.90;;;13.18;;
57752;SDS011;43583;53.132;6.574;2023-02-23T10:01:42;39.50;;;14.82;;
57752;SDS011;43583;53.132;6.574;2023-02-23T10:04:19;34.05;;;13.80;;
57752;SDS011;43583;53.132;6.574;2023-02-23T10:07:14;36.60;;;13.43;;
57752;SDS011;43583;53.132;6.574;2023-02-23T10:10:25;35.13;;;11.70;;
57752;SDS011;43583;53.132;6.574;2023-02-23T10:13:17;30.92;;;13.57;;
57752;SDS011;43583;53.132;6.574;2023-02-23T10:16:05;36.20;;;14.75;;
57752;SDS011;43583;53.132;6.574;2023-02-23T10:19:06;32.97;;;13.90;;
57752;SDS011;43583;53.132;6.574;2023-02-23T10:21:42;32.00;;;12.48;;
57752;SDS011;43583;53.132;6.574;2023-02-23T10:24:13;32.03;;;13.63;;
57752;SDS011;43583;53.132;6.574;2023-02-23T10:26:48;37.20;;;15.73;;
57752;SDS011;43583;53.132;6.574;2023-02-23T10:29:20;44.17;;;15.35;;
57752;SDS011;43583;53.132;6.574;2023-02-23T10:31:47;35.70;;;14.30;;
57752;SDS011;43583;53.132;6.574;2023-02-23T10:34:16;47.92;;;16.92;;
57752;SDS011;43583;53.132;6.574;2023-02-23T10:39:10;44.42;;;16.13;;
57752;SDS011;43583;53.132;6.574;2023-02-23T10:41:37;40.28;;;17.77;;
57752;SDS011;43583;53.132;6.574;2023-02-23T10:44:04;42.78;;;16.85;;
57752;SDS011;43583;53.132;6.574;2023-02-23T10:46:36;45.13;;;16.92;;
57752;SDS011;43583;53.132;6.574;2023-02-23T10:49:05;45.65;;;17.13;;
57752;SDS011;43583;53.132;6.574;2023-02-23T10:51:32;44.55;;;16.73;;
57752;SDS011;43583;53.132;6.574;2023-02-23T10:57:04;45.45;;;16.00;;
57752;SDS011;43583;53.132;6.574;2023-02-23T10:59:32;56.35;;;18.80;;
57752;SDS011;43583;53.132;6.574;2023-02-23T11:01:59;49.20;;;17.25;;
57752;SDS011;43583;53.132;6.574;2023-02-23T11:04:49;57.00;;;19.35;;
57752;SDS011;43583;53.132;6.574;2023-02-23T11:07:18;61.20;;;18.83;;
57752;SDS011;43583;53.132;6.574;2023-02-23T11:09:47;53.20;;;17.42;;
57752;SDS011;43583;53.132;6.574;2023-02-23T11:12:20;56.15;;;18.75;;
57752;SDS011;43583;53.132;6.574;2023-02-23T11:14:48;57.97;;;19.25;;
57752;SDS011;43583;53.132;6.574;2023-02-23T11:20:01;49.17;;;15.00;;
57752;SDS011;43583;53.132;6.574;2023-02-23T11:22:42;54.20;;;16.77;;
57752;SDS011;43583;53.132;6.574;2023-02-23T11:25:15;54.05;;;15.23;;
57752;SDS011;43583;53.132;6.574;2023-02-23T11:27:46;45.65;;;14.25;;
57752;SDS011;43583;53.132;6.574;2023-02-23T11:30:15;50.08;;;14.38;;
57752;SDS011;43583;53.132;6.574;2023-02-23T11:32:48;47.03;;;15.70;;
57752;SDS011;43583;53.132;6.574;2023-02-23T11:37:45;32.60;;;10.05;;
57752;SDS011;43583;53.132;6.574;2023-02-23T11:43:05;34.55;;;11.98;;
57752;SDS011;43583;53.132;6.574;2023-02-23T11:45:44;42.80;;;12.82;;
57752;SDS011;43583;53.132;6.574;2023-02-23T11:48:47;40.63;;;13.18;;
57752;SDS011;43583;53.132;6.574;2023-02-23T11:51:21;37.90;;;11.90;;
57752;SDS011;43583;53.132;6.574;2023-02-23T11:53:54;40.72;;;12.77;;
57752;SDS011;43583;53.132;6.574;2023-02-23T11:56:20;44.30;;;14.10;;
57752;SDS011;43583;53.132;6.574;2023-02-23T11:58:49;38.55;;;11.75;;
57752;SDS011;43583;53.132;6.574;2023-02-23T12:01:37;47.25;;;14.25;;
57752;SDS011;43583;53.132;6.574;2023-02-23T12:09:39;48.33;;;15.18;;
57752;SDS011;43583;53.132;6.574;2023-02-23T12:12:08;53.60;;;15.48;;
57752;SDS011;43583;53.132;6.574;2023-02-23T12:14:42;59.83;;;17.13;;
57752;SDS011;43583;53.132;6.574;2023-02-23T12:17:26;49.33;;;14.82;;
57752;SDS011;43583;53.132;6.574;2023-02-23T12:20:03;58.60;;;16.65;;
57752;SDS011;43583;53.132;6.574;2023-02-23T12:22:37;66.13;;;16.85;;
57752;SDS011;43583;53.132;6.574;2023-02-23T12:28:15;51.75;;;14.85;;
57752;SDS011;43583;53.132;6.574;2023-02-23T12:30:57;61.95;;;17.80;;
57752;SDS011;43583;53.132;6.574;2023-02-23T12:33:49;66.18;;;18.25;;
57752;SDS011;43583;53.132;6.574;2023-02-23T12:36:38;66.72;;;17.27;;
57752;SDS011;43583;53.132;6.574;2023-02-23T12:39:27;60.05;;;17.52;;
57752;SDS011;43583;53.132;6.574;2023-02-23T12:44:59;70.32;;;19.05;;
57752;SDS011;43583;53.132;6.574;2023-02-23T12:47:35;64.38;;;18.85;;
57752;SDS011;43583;53.132;6.574;2023-02-23T12:50:05;75.43;;;25.17;;
57752;SDS011;43583;53.132;6.574;2023-02-23T12:52:37;81.07;;;22.42;;
57752;SDS011;43583;53.132;6.574;2023-02-23T12:55:12;78.38;;;21.38;;
57752;SDS011;43583;53.132;6.574;2023-02-23T13:03:06;76.47;;;20.30;;
57752;SDS011;43583;53.132;6.574;2023-02-23T13:11:41;66.95;;;17.38;;
57752;SDS011;43583;53.132;6.574;2023-02-23T13:14:23;62.20;;;16.50;;
57752;SDS011;43583;53.132;6.574;2023-02-23T13:16:59;64.28;;;18.58;;
57752;SDS011;43583;53.132;6.574;2023-02-23T13:19:34;52.60;;;15.95;;
57752;SDS011;43583;53.132;6.574;2023-02-23T13:22:20;58.42;;;15.48;;
57752;SDS011;43583;53.132;6.574;2023-02-23T13:27:54;34.10;;;10.32;;
57752;SDS011;43583;53.132;6.574;2023-02-23T13:30:24;19.75;;;5.93;;
57752;SDS011;43583;53.132;6.574;2023-02-23T13:32:50;16.13;;;2.10;;
57752;SDS011;43583;53.132;6.574;2023-02-23T13:35:17;22.25;;;2.67;;
57752;SDS011;43583;53.132;6.574;2023-02-23T13:37:50;16.60;;;2.85;;
57752;SDS011;43583;53.132;6.574;2023-02-23T13:40:30;15.95;;;4.05;;
57752;SDS011;43583;53.132;6.574;2023-02-23T13:45:49;19.55;;;3.60;;
57752;SDS011;43583;53.132;6.574;2023-02-23T13:56:19;29.15;;;2.58;;
57752;SDS011;43583;53.132;6.574;2023-02-23T14:02:38;24.92;;;4.10;;
57752;SDS011;43583;53.132;6.574;2023-02-23T14:05:27;19.17;;;1.65;;
57752;SDS011;43583;53.132;6.574;2023-02-23T14:08:00;18.48;;;3.63;;
57752;SDS011;43583;53.132;6.574;2023-02-23T14:14:39;25.80;;;3.03;;
57752;SDS011;43583;53.132;6.574;2023-02-23T14:19:44;24.58;;;2.70;;
57752;SDS011;43583;53.132;6.574;2023-02-23T14:22:32;17.55;;;2.33;;
57752;SDS011;43583;53.132;6.574;2023-02-23T14:27:58;20.98;;;2.25;;
57752;SDS011;43583;53.132;6.574;2023-02-23T14:30:26;27.73;;;2.47;;
57752;SDS011;43583;53.132;6.574;2023-02-23T14:32:59;22.08;;;3.05;;
57752;SDS011;43583;53.132;6.574;2023-02-23T14:41:09;25.27;;;3.25;;
57752;SDS011;43583;53.132;6.574;2023-02-23T14:46:09;18.50;;;2.60;;
57752;SDS011;43583;53.132;6.574;2023-02-23T14:49:00;21.60;;;3.13;;
57752;SDS011;43583;53.132;6.574;2023-02-23T14:51:36;21.27;;;1.58;;
57752;SDS011;43583;53.132;6.574;2023-02-23T14:56:58;19.38;;;2.63;;
57752;SDS011;43583;53.132;6.574;2023-02-23T14:59:27;20.88;;;2.78;;
57752;SDS011;43583;53.132;6.574;2023-02-23T15:01:59;18.38;;;2.83;;
57752;SDS011;43583;53.132;6.574;2023-02-23T15:04:25;22.25;;;2.40;;
57752;SDS011;43583;53.132;6.574;2023-02-23T15:06:54;14.90;;;1.70;;
57752;SDS011;43583;53.132;6.574;2023-02-23T15:09:28;19.40;;;2.50;;
57752;SDS011;43583;53.132;6.574;2023-02-23T15:12:02;17.45;;;1.20;;
57752;SDS011;43583;53.132;6.574;2023-02-23T15:14:42;17.15;;;1.45;;
57752;SDS011;43583;53.132;6.574;2023-02-23T15:17:12;15.15;;;1.92;;
57752;SDS011;43583;53.132;6.574;2023-02-23T15:19:48;22.08;;;2.70;;
57752;SDS011;43583;53.132;6.574;2023-02-23T15:22:21;15.20;;;2.42;;
57752;SDS011;43583;53.132;6.574;2023-02-23T15:24:49;16.67;;;1.50;;
57752;SDS011;43583;53.132;6.574;2023-02-23T15:27:20;14.15;;;1.55;;
57752;SDS011;43583;53.132;6.574;2023-02-23T15:29:48;13.88;;;1.38;;
57752;SDS011;43583;53.132;6.574;2023-02-23T15:32:21;14.13;;;2.50;;
57752;SDS011;43583;53.132;6.574;2023-02-23T15:34:52;17.08;;;2.88;;
57752;SDS011;43583;53.132;6.574;2023-02-23T15:39:57;9.90;;;1.93;;
57752;SDS011;43583;53.132;6.574;2023-02-23T15:42:34;11.68;;;0.73;;
57752;SDS011;43583;53.132;6.574;2023-02-23T15:47:54;14.88;;;2.42;;
57752;SDS011;43583;53.132;6.574;2023-02-23T15:50:23;21.27;;;2.92;;
57752;SDS011;43583;53.132;6.574;2023-02-23T15:52:57;14.70;;;1.77;;
57752;SDS011;43583;53.132;6.574;2023-02-23T15:55:27;14.82;;;2.03;;
57752;SDS011;43583;53.132;6.574;2023-02-23T15:57:59;17.08;;;1.77;;
57752;SDS011;43583;53.132;6.574;2023-02-23T16:00:40;11.32;;;0.70;;
57752;SDS011;43583;53.132;6.574;2023-02-23T16:03:18;9.55;;;1.58;;
57752;SDS011;43583;53.132;6.574;2023-02-23T16:06:05;11.95;;;1.60;;
57752;SDS011;43583;53.132;6.574;2023-02-23T16:08:54;17.52;;;1.95;;
57752;SDS011;43583;53.132;6.574;2023-02-23T16:11:48;9.00;;;1.48;;
57752;SDS011;43583;53.132;6.574;2023-02-23T16:14:25;13.85;;;1.75;;
57752;SDS011;43583;53.132;6.574;2023-02-23T16:16:57;14.18;;;1.48;;
57752;SDS011;43583;53.132;6.574;2023-02-23T16:19:23;7.57;;;1.13;;
57752;SDS011;43583;53.132;6.574;2023-02-23T16:21:54;12.65;;;1.20;;
57752;SDS011;43583;53.132;6.574;2023-02-23T16:24:22;17.52;;;1.25;;
57752;SDS011;43583;53.132;6.574;2023-02-23T16:27:00;8.13;;;0.45;;
57752;SDS011;43583;53.132;6.574;2023-02-23T16:29:29;12.25;;;1.00;;
57752;SDS011;43583;53.132;6.574;2023-02-23T16:32:09;9.25;;;1.30;;
57752;SDS011;43583;53.132;6.574;2023-02-23T16:34:48;13.98;;;0.68;;
57752;SDS011;43583;53.132;6.574;2023-02-23T16:37:23;17.65;;;0.73;;
57752;SDS011;43583;53.132;6.574;2023-02-23T16:39:52;10.10;;;1.45;;
57752;SDS011;43583;53.132;6.574;2023-02-23T16:42:29;10.68;;;1.30;;
57752;SDS011;43583;53.132;6.574;2023-02-23T16:44:57;6.32;;;0.55;;
57752;SDS011;43583;53.132;6.574;2023-02-23T16:49:49;11.10;;;1.15;;
57752;SDS011;43583;53.132;6.574;2023-02-23T16:52:16;7.95;;;1.05;;
57752;SDS011;43583;53.132;6.574;2023-02-23T16:54:47;3.53;;;0.65;;
57752;SDS011;43583;53.132;6.574;2023-02-23T16:57:29;11.95;;;1.13;;
57752;SDS011;43583;53.132;6.574;2023-02-23T16:59:57;7.70;;;1.05;;
57752;SDS011;43583;53.132;6.574;2023-02-23T17:02:24;10.73;;;1.77;;
57752;SDS011;43583;53.132;6.574;2023-02-23T17:04:50;9.40;;;1.17;;
57752;SDS011;43583;53.132;6.574;2023-02-23T17:07:17;5.45;;;0.43;;
57752;SDS011;43583;53.132;6.574;2023-02-23T17:09:44;7.75;;;0.68;;
57752;SDS011;43583;53.132;6.574;2023-02-23T17:12:10;6.95;;;0.45;;
57752;SDS011;43583;53.132;6.574;2023-02-23T17:14:37;9.15;;;2.30;;